createdAt,value
2023-10-06T00:02:29.746Z,14.28
2023-10-06T00:04:57.108Z,14.19
2023-10-06T00:07:25.227Z,14.01
2023-10-06T00:09:54.894Z,13.90
2023-10-06T00:12:21.708Z,13.89
2023-10-06T00:14:51.491Z,13.90
2023-10-06T00:17:18.911Z,13.90
2023-10-06T00:19:46.504Z,13.80
2023-10-06T00:22:19.065Z,13.73
2023-10-06T00:24:48.958Z,13.72
2023-10-06T00:27:16.751Z,13.66
2023-10-06T00:29:53.820Z,13.64
2023-10-06T00:32:23.433Z,13.57
2023-10-06T00:34:55.620Z,13.53
2023-10-06T00:37:25.834Z,13.51
2023-10-06T00:39:58.510Z,13.53
2023-10-06T00:42:27.761Z,13.54
2023-10-06T00:44:54.943Z,13.49
2023-10-06T00:47:22.628Z,13.51
2023-10-06T00:49:49.497Z,13.50
2023-10-06T00:52:16.800Z,13.50
2023-10-06T00:54:45.010Z,13.48
2023-10-06T00:57:20.055Z,13.46
2023-10-06T00:59:46.746Z,13.55
2023-10-06T01:02:17.240Z,13.61
2023-10-06T01:04:53.757Z,13.61
2023-10-06T01:07:20.434Z,13.79
2023-10-06T01:10:08.116Z,13.84
2023-10-06T01:12:35.741Z,13.85
2023-10-06T01:15:20.806Z,13.83
2023-10-06T01:17:48.736Z,13.81
2023-10-06T01:20:34.741Z,13.79
2023-10-06T01:23:01.859Z,13.65
2023-10-06T01:25:29.361Z,13.61
2023-10-06T01:27:55.829Z,13.54
2023-10-06T01:30:22.895Z,13.47
2023-10-06T01:32:52.824Z,13.33
2023-10-06T01:35:22.383Z,13.28
2023-10-06T01:37:49.559Z,13.32
2023-10-06T01:40:36.494Z,13.26
2023-10-06T01:43:11.099Z,13.19
2023-10-06T01:45:45.041Z,13.13
2023-10-06T01:48:14.698Z,13.05
2023-10-06T01:50:42.673Z,13.04
2023-10-06T01:53:11.514Z,13.04
2023-10-06T01:55:39.615Z,13.05
2023-10-06T01:58:08.778Z,13.02
2023-10-06T02:00:37.143Z,13.03
2023-10-06T02:03:11.987Z,13.06
2023-10-06T02:05:42.094Z,13.10
2023-10-06T02:08:15.852Z,13.19
2023-10-06T02:10:46.239Z,13.27
2023-10-06T02:13:12.753Z,13.21
2023-10-06T02:15:39.306Z,13.18
2023-10-06T02:18:08.443Z,13.15
2023-10-06T02:20:36.100Z,13.01
2023-10-06T02:23:04.552Z,12.94
2023-10-06T02:25:32.841Z,12.86
2023-10-06T02:28:05.261Z,12.88
2023-10-06T02:30:35.229Z,12.81
2023-10-06T02:33:01.991Z,12.86
2023-10-06T02:35:28.649Z,12.88
2023-10-06T02:37:59.034Z,12.93
2023-10-06T02:40:32.393Z,12.92
2023-10-06T02:43:01.359Z,12.91
2023-10-06T02:45:38.425Z,12.87
2023-10-06T02:48:15.505Z,12.86
2023-10-06T02:50:45.733Z,12.75
2023-10-06T02:53:21.283Z,12.72
2023-10-06T02:55:50.377Z,12.71
2023-10-06T02:58:28.150Z,12.72
2023-10-06T03:00:56.832Z,12.70
2023-10-06T03:03:28.018Z,12.77
2023-10-06T03:05:56.981Z,12.78
2023-10-06T03:08:29.002Z,12.77
2023-10-06T03:10:55.562Z,12.84
2023-10-06T03:13:44.119Z,12.75
2023-10-06T03:16:13.807Z,12.71
2023-10-06T03:18:40.870Z,12.72
2023-10-06T03:21:13.400Z,12.68
2023-10-06T03:23:40.466Z,12.73
2023-10-06T03:26:25.839Z,12.74
2023-10-06T03:28:54.345Z,12.76
2023-10-06T03:31:21.623Z,12.75
2023-10-06T03:33:56.073Z,12.77
2023-10-06T03:36:35.530Z,12.87
2023-10-06T03:39:08.316Z,13.00
2023-10-06T03:41:38.364Z,13.11
2023-10-06T03:44:06.247Z,13.23
2023-10-06T03:46:39.218Z,13.30
2023-10-06T03:49:06.602Z,13.40
2023-10-06T03:51:38.927Z,13.40
2023-10-06T03:54:06.399Z,13.39
2023-10-06T03:56:33.641Z,13.55
2023-10-06T03:59:06.482Z,13.57
2023-10-06T04:01:33.359Z,13.51
2023-10-06T04:04:00.103Z,13.41
2023-10-06T04:06:29.659Z,13.35
2023-10-06T04:08:58.245Z,13.40
2023-10-06T04:11:31.047Z,13.36
2023-10-06T04:13:59.049Z,13.40
2023-10-06T04:16:26.397Z,13.50
2023-10-06T04:18:52.978Z,13.52
2023-10-06T04:21:21.338Z,13.48
2023-10-06T04:23:47.886Z,13.51
2023-10-06T04:26:17.724Z,13.44
2023-10-06T04:28:49.248Z,13.42
2023-10-06T04:31:19.586Z,13.44
2023-10-06T04:33:46.278Z,13.40
2023-10-06T04:36:14.236Z,13.38
2023-10-06T04:38:41.701Z,13.44
2023-10-06T04:41:09.700Z,13.46
2023-10-06T04:43:37.589Z,13.44
2023-10-06T04:46:06.561Z,13.50
2023-10-06T04:48:37.063Z,13.45
2023-10-06T04:51:05.042Z,13.45
2023-10-06T04:53:37.644Z,13.43
2023-10-06T04:56:05.720Z,13.49
2023-10-06T04:58:32.547Z,13.41
2023-10-06T05:01:02.009Z,13.33
2023-10-06T05:03:28.917Z,13.29
2023-10-06T05:05:57.061Z,13.28
2023-10-06T05:08:25.812Z,13.25
2023-10-06T05:10:57.152Z,13.13
2023-10-06T05:13:23.856Z,13.13
2023-10-06T05:15:51.284Z,13.05
2023-10-06T05:18:17.954Z,12.99
2023-10-06T05:20:44.894Z,13.04
2023-10-06T05:23:13.110Z,13.13
2023-10-06T05:25:40.995Z,13.27
2023-10-06T05:28:12.031Z,13.36
2023-10-06T05:30:39.678Z,13.44
2023-10-06T05:33:06.873Z,13.55
2023-10-06T05:35:39.748Z,13.57
2023-10-06T05:38:09.800Z,13.67
2023-10-06T05:40:36.644Z,13.72
2023-10-06T05:43:05.505Z,13.77
2023-10-06T05:45:32.270Z,13.81
2023-10-06T05:48:08.089Z,13.84
2023-10-06T05:50:36.867Z,13.85
2023-10-06T05:53:13.984Z,13.85
2023-10-06T05:55:44.302Z,13.79
2023-10-06T05:58:15.685Z,13.76
2023-10-06T06:00:52.455Z,13.75
2023-10-06T06:03:22.015Z,13.66
2023-10-06T06:05:49.912Z,13.57
2023-10-06T06:08:16.501Z,13.56
2023-10-06T06:10:43.276Z,13.50
2023-10-06T06:13:09.878Z,13.50
2023-10-06T06:15:36.716Z,13.44
2023-10-06T06:18:03.406Z,13.36
2023-10-06T06:20:30.369Z,13.41
2023-10-06T06:23:03.447Z,13.40
2023-10-06T06:25:30.864Z,13.29
2023-10-06T06:28:00.512Z,13.27
2023-10-06T06:30:28.069Z,13.33
2023-10-06T06:32:55.829Z,13.28
2023-10-06T06:35:24.292Z,13.10
2023-10-06T06:37:52.578Z,13.30
2023-10-06T06:40:23.580Z,13.32
2023-10-06T06:42:52.638Z,13.53
2023-10-06T06:45:20.324Z,13.56
2023-10-06T06:47:46.952Z,13.67
2023-10-06T06:50:15.235Z,13.73
2023-10-06T06:52:42.251Z,13.75
2023-10-06T06:55:13.921Z,13.75
2023-10-06T06:57:43.233Z,13.77
2023-10-06T07:00:16.935Z,13.84
2023-10-06T07:02:44.391Z,13.87
2023-10-06T07:05:15.264Z,13.94
2023-10-06T07:07:44.414Z,14.01
2023-10-06T07:10:14.986Z,13.97
2023-10-06T07:12:46.178Z,14.11
2023-10-06T07:15:19.084Z,14.18
2023-10-06T07:17:47.975Z,14.24
2023-10-06T07:20:17.930Z,14.43
2023-10-06T07:22:48.734Z,14.48
2023-10-06T07:25:16.848Z,14.59
2023-10-06T07:27:45.747Z,14.80
2023-10-06T07:30:16.012Z,14.96
2023-10-06T07:32:44.410Z,15.10
2023-10-06T07:35:15.819Z,15.23
2023-10-06T07:37:44.242Z,15.36
2023-10-06T07:40:15.848Z,15.51
2023-10-06T07:42:43.715Z,15.68
2023-10-06T07:45:10.709Z,15.85
2023-10-06T07:47:39.169Z,15.97
2023-10-06T07:50:06.712Z,16.15
2023-10-06T07:52:37.242Z,16.28
2023-10-06T07:55:10.916Z,16.40
2023-10-06T07:57:39.087Z,16.57
2023-10-06T08:00:08.205Z,16.68
2023-10-06T08:02:34.762Z,16.85
2023-10-06T08:05:01.274Z,17.01
2023-10-06T08:07:28.860Z,17.21
2023-10-06T08:09:59.999Z,17.33
2023-10-06T08:12:28.391Z,17.43
2023-10-06T08:14:55.604Z,17.55
2023-10-06T08:17:22.187Z,17.68
2023-10-06T08:19:48.788Z,17.86
2023-10-06T08:22:17.035Z,17.97
2023-10-06T08:24:44.629Z,18.15
2023-10-06T08:27:12.853Z,18.32
2023-10-06T08:29:39.638Z,18.50
2023-10-06T08:32:07.713Z,18.61
2023-10-06T08:34:40.344Z,18.80
2023-10-06T08:37:12.288Z,18.92
2023-10-06T08:39:41.915Z,19.18
2023-10-06T08:42:13.195Z,19.34
2023-10-06T08:44:43.121Z,19.58
2023-10-06T08:47:26.313Z,19.79
2023-10-06T08:49:57.614Z,20.05
2023-10-06T08:52:24.274Z,20.30
2023-10-06T08:54:50.771Z,20.54
2023-10-06T08:57:17.301Z,20.79
2023-10-06T08:59:45.014Z,21.00
2023-10-06T09:02:11.708Z,21.19
2023-10-06T09:04:38.377Z,21.34
2023-10-06T09:07:09.795Z,21.48
2023-10-06T09:09:37.504Z,21.57
2023-10-06T09:12:05.047Z,21.70
2023-10-06T09:14:32.113Z,21.84
2023-10-06T09:17:02.918Z,21.88
2023-10-06T09:19:50.027Z,21.95
2023-10-06T09:22:17.778Z,21.84
2023-10-06T09:24:57.068Z,21.72
2023-10-06T09:27:26.366Z,22.10
2023-10-06T09:30:11.874Z,22.13
2023-10-06T09:32:40.307Z,22.46
2023-10-06T09:35:20.555Z,22.86
2023-10-06T09:37:47.751Z,23.21
2023-10-06T09:40:24.021Z,23.55
2023-10-06T09:42:51.937Z,23.88
2023-10-06T09:45:22.665Z,24.18
2023-10-06T09:48:00.753Z,24.52
2023-10-06T09:50:29.692Z,24.74
2023-10-06T09:53:04.445Z,25.08
2023-10-06T09:55:32.473Z,25.27
2023-10-06T09:57:59.538Z,25.27
2023-10-06T10:00:31.045Z,25.39
2023-10-06T10:02:59.281Z,25.57
2023-10-06T10:05:26.618Z,25.82
2023-10-06T10:07:54.620Z,26.06
2023-10-06T10:10:24.825Z,26.27
2023-10-06T10:13:08.790Z,26.46
2023-10-06T10:16:11.027Z,26.57
2023-10-06T10:18:41.751Z,26.77
2023-10-06T10:21:13.139Z,26.95
2023-10-06T10:23:42.734Z,27.11
2023-10-06T10:26:17.497Z,27.29
2023-10-06T10:28:46.861Z,27.44
2023-10-06T10:31:18.735Z,27.64
2023-10-06T10:33:48.111Z,27.82
2023-10-06T10:36:16.089Z,28.03
2023-10-06T10:38:43.502Z,28.21
2023-10-06T10:41:11.330Z,28.38
2023-10-06T10:43:46.853Z,28.52
2023-10-06T10:46:14.035Z,28.71
2023-10-06T10:48:48.699Z,28.89
2023-10-06T10:51:16.439Z,29.11
2023-10-06T10:53:49.087Z,29.27
2023-10-06T10:56:26.511Z,29.39
2023-10-06T10:58:55.000Z,29.40
2023-10-06T11:01:28.931Z,29.24
2023-10-06T11:04:20.033Z,29.20
2023-10-06T11:06:51.042Z,29.24
2023-10-06T11:09:30.846Z,29.25
2023-10-06T11:12:23.222Z,29.30
2023-10-06T11:14:53.294Z,29.42
2023-10-06T11:17:22.006Z,29.46
2023-10-06T11:20:06.136Z,29.52
2023-10-06T11:22:34.364Z,29.54
2023-10-06T11:25:04.671Z,29.55
2023-10-06T11:27:31.270Z,29.67
2023-10-06T11:29:59.932Z,29.86
2023-10-06T11:32:27.827Z,29.99
2023-10-06T11:34:55.701Z,29.97
2023-10-06T11:37:26.288Z,29.95
2023-10-06T11:39:54.692Z,30.02
2023-10-06T11:42:27.288Z,29.86
2023-10-06T11:44:54.454Z,29.85
2023-10-06T11:47:25.783Z,29.80
2023-10-06T11:49:58.573Z,29.97
2023-10-06T11:52:31.003Z,30.07
2023-10-06T11:54:59.905Z,30.16
2023-10-06T11:57:47.446Z,30.31
2023-10-06T12:00:18.516Z,30.42
2023-10-06T12:02:51.545Z,30.41
2023-10-06T12:05:24.249Z,30.58
2023-10-06T12:07:51.129Z,30.76
2023-10-06T12:10:20.083Z,30.97
2023-10-06T12:12:47.336Z,30.93
2023-10-06T12:15:17.923Z,30.87
2023-10-06T12:17:45.029Z,30.85
2023-10-06T12:20:15.317Z,30.89
2023-10-06T12:22:45.219Z,30.91
2023-10-06T12:25:13.085Z,30.98
2023-10-06T12:27:44.768Z,31.00
2023-10-06T12:30:15.767Z,30.97
2023-10-06T12:32:46.835Z,30.99
2023-10-06T12:35:19.268Z,30.92
2023-10-06T12:37:47.585Z,30.89
2023-10-06T12:40:16.688Z,30.77
2023-10-06T12:42:44.406Z,30.78
2023-10-06T12:45:19.623Z,30.72
2023-10-06T12:47:50.747Z,30.46
2023-10-06T12:50:20.371Z,30.27
2023-10-06T12:52:50.919Z,30.26
2023-10-06T12:55:22.208Z,30.07
2023-10-06T12:57:53.403Z,29.90
2023-10-06T13:00:21.069Z,29.86
2023-10-06T13:02:51.117Z,29.64
2023-10-06T13:05:20.126Z,29.52
2023-10-06T13:07:48.140Z,29.44
2023-10-06T13:10:17.124Z,29.42
2023-10-06T13:12:44.750Z,29.57
2023-10-06T13:15:15.959Z,29.54
2023-10-06T13:17:43.142Z,29.55
2023-10-06T13:20:11.147Z,29.65
2023-10-06T13:22:38.789Z,29.54
2023-10-06T13:25:07.622Z,29.68
2023-10-06T13:27:35.175Z,29.75
2023-10-06T13:30:04.774Z,29.72
2023-10-06T13:32:31.559Z,29.55
2023-10-06T13:34:58.299Z,29.54
2023-10-06T13:37:25.304Z,29.51
2023-10-06T13:39:51.787Z,29.36
2023-10-06T13:42:18.622Z,29.31
2023-10-06T13:44:45.948Z,29.31
2023-10-06T13:47:12.531Z,29.34
2023-10-06T13:49:39.820Z,29.32
2023-10-06T13:52:06.946Z,29.17
2023-10-06T13:54:33.971Z,29.00
2023-10-06T13:57:01.739Z,28.88
2023-10-06T13:59:29.853Z,28.76
2023-10-06T14:01:56.611Z,28.60
2023-10-06T14:04:25.011Z,28.35
2023-10-06T14:06:51.612Z,28.22
2023-10-06T14:09:24.942Z,27.95
2023-10-06T14:11:53.344Z,27.80
2023-10-06T14:14:55.875Z,27.72
2023-10-06T14:17:27.762Z,27.70
2023-10-06T14:19:54.392Z,27.77
2023-10-06T14:22:22.502Z,27.59
2023-10-06T14:24:49.723Z,27.59
2023-10-06T14:27:19.321Z,27.48
2023-10-06T14:29:46.416Z,27.42
2023-10-06T14:32:19.799Z,27.44
2023-10-06T14:35:13.444Z,27.39
2023-10-06T14:37:41.617Z,27.30
2023-10-06T14:40:27.715Z,27.34
2023-10-06T14:43:13.019Z,27.27
2023-10-06T14:45:58.063Z,27.04
2023-10-06T14:48:28.592Z,27.01
2023-10-06T14:50:58.927Z,26.99
2023-10-06T14:53:29.514Z,26.39
2023-10-06T14:55:57.385Z,26.27
2023-10-06T14:58:24.359Z,26.22
2023-10-06T15:00:50.893Z,26.16
2023-10-06T15:03:18.467Z,26.15
2023-10-06T15:05:46.444Z,26.10
2023-10-06T15:08:13.885Z,26.09
2023-10-06T15:10:42.068Z,26.00
2023-10-06T15:13:14.847Z,25.94
2023-10-06T15:15:43.640Z,25.86
2023-10-06T15:18:16.486Z,25.90
2023-10-06T15:20:43.782Z,25.88
2023-10-06T15:23:14.223Z,25.78
2023-10-06T15:25:54.094Z,25.76
2023-10-06T15:28:31.791Z,25.65
2023-10-06T15:31:05.878Z,25.57
2023-10-06T15:33:34.088Z,25.47
2023-10-06T15:36:04.603Z,25.35
2023-10-06T15:38:32.316Z,25.15
2023-10-06T15:41:16.930Z,24.97
2023-10-06T15:43:46.930Z,24.75
2023-10-06T15:46:16.215Z,24.48
2023-10-06T15:48:43.343Z,24.19
2023-10-06T15:51:12.166Z,24.04
2023-10-06T15:53:41.006Z,23.82
2023-10-06T15:56:16.181Z,23.62
2023-10-06T15:58:45.274Z,23.38
2023-10-06T16:01:13.200Z,23.07
2023-10-06T16:03:42.271Z,22.76
2023-10-06T16:06:13.622Z,22.50
2023-10-06T16:08:44.434Z,22.18
2023-10-06T16:11:11.514Z,22.03
2023-10-06T16:13:40.301Z,21.79
2023-10-06T16:16:12.593Z,21.58
2023-10-06T16:18:39.826Z,21.47
2023-10-06T16:21:12.641Z,21.21
2023-10-06T16:23:42.225Z,21.09
2023-10-06T16:26:10.457Z,20.90
2023-10-06T16:28:40.371Z,20.70
2023-10-06T16:31:08.234Z,20.53
2023-10-06T16:33:37.567Z,20.37
2023-10-06T16:36:07.694Z,20.19
2023-10-06T16:38:34.820Z,20.00
2023-10-06T16:41:01.860Z,19.86
2023-10-06T16:43:35.813Z,19.76
2023-10-06T16:46:12.196Z,19.60
2023-10-06T16:48:42.353Z,19.53
2023-10-06T16:51:09.462Z,19.34
2023-10-06T16:53:37.172Z,19.21
2023-10-06T16:56:06.034Z,19.12
2023-10-06T16:58:33.027Z,18.98
2023-10-06T17:01:05.526Z,18.86
2023-10-06T17:03:33.393Z,18.76
2023-10-06T17:06:00.844Z,18.72
2023-10-06T17:08:27.643Z,18.62
2023-10-06T17:10:54.195Z,18.44
2023-10-06T17:13:23.639Z,18.34
2023-10-06T17:15:50.468Z,18.32
2023-10-06T17:18:17.198Z,18.31
2023-10-06T17:20:45.361Z,18.27
2023-10-06T17:23:12.826Z,18.21
2023-10-06T17:25:39.547Z,18.15
2023-10-06T17:28:07.707Z,17.97
2023-10-06T17:30:37.091Z,17.98
2023-10-06T17:33:08.183Z,17.92
2023-10-06T17:35:35.642Z,17.77
2023-10-06T17:38:02.422Z,17.76
2023-10-06T17:40:30.174Z,17.67
2023-10-06T17:42:56.706Z,17.58
2023-10-06T17:45:26.616Z,17.52
2023-10-06T17:47:56.530Z,17.48
2023-10-06T17:50:24.028Z,17.47
2023-10-06T17:52:50.789Z,17.48
2023-10-06T17:55:17.436Z,17.44
2023-10-06T17:57:43.988Z,17.39
2023-10-06T18:00:12.212Z,17.29
2023-10-06T18:02:39.843Z,17.31
2023-10-06T18:05:09.621Z,17.21
2023-10-06T18:07:36.714Z,17.10
2023-10-06T18:10:09.125Z,17.00
2023-10-06T18:12:37.860Z,17.01
2023-10-06T18:15:06.651Z,17.07
2023-10-06T18:17:33.665Z,17.05
2023-10-06T18:20:00.296Z,16.94
2023-10-06T18:22:28.226Z,16.83
2023-10-06T18:24:54.836Z,16.80
2023-10-06T18:27:22.176Z,16.80
2023-10-06T18:29:48.643Z,16.82
2023-10-06T18:32:15.736Z,16.76
2023-10-06T18:34:43.157Z,16.72
2023-10-06T18:37:09.829Z,16.64
2023-10-06T18:39:37.135Z,16.52
2023-10-06T18:42:03.722Z,16.42
2023-10-06T18:44:30.336Z,16.33
2023-10-06T18:46:56.969Z,16.27
2023-10-06T18:49:23.590Z,16.15
2023-10-06T18:51:50.236Z,16.11
2023-10-06T18:54:16.739Z,16.05
2023-10-06T18:56:43.419Z,16.01
2023-10-06T18:59:10.088Z,15.94
2023-10-06T19:01:37.076Z,15.93
2023-10-06T19:04:07.168Z,15.85
2023-10-06T19:06:33.969Z,15.79
2023-10-06T19:09:00.511Z,15.76
2023-10-06T19:11:27.056Z,15.75
2023-10-06T19:13:53.862Z,15.71
2023-10-06T19:16:21.548Z,15.62
2023-10-06T19:18:51.475Z,15.52
2023-10-06T19:21:21.766Z,15.54
2023-10-06T19:23:49.585Z,15.52
2023-10-06T19:26:20.846Z,15.52
2023-10-06T19:28:48.070Z,15.61
2023-10-06T19:31:14.923Z,15.67
2023-10-06T19:33:52.147Z,15.64
2023-10-06T19:36:20.933Z,15.59
2023-10-06T19:38:48.623Z,15.55
2023-10-06T19:41:16.075Z,15.47
2023-10-06T19:43:43.049Z,15.38
2023-10-06T19:46:11.317Z,15.33
2023-10-06T19:48:43.810Z,15.28
2023-10-06T19:51:11.144Z,15.10
2023-10-06T19:53:38.293Z,15.01
2023-10-06T19:56:05.633Z,14.94
2023-10-06T19:58:32.900Z,14.88
2023-10-06T20:01:00.049Z,14.82
2023-10-06T20:03:27.393Z,14.84
2023-10-06T20:05:54.790Z,14.78
2023-10-06T20:08:21.797Z,14.75
2023-10-06T20:10:53.489Z,14.56
2023-10-06T20:13:20.256Z,14.47
2023-10-06T20:15:47.412Z,14.48
2023-10-06T20:18:15.231Z,14.45
2023-10-06T20:20:43.332Z,14.36
2023-10-06T20:23:09.855Z,14.28
2023-10-06T20:25:36.313Z,14.14
2023-10-06T20:28:04.128Z,14.16
2023-10-06T20:30:31.678Z,14.14
2023-10-06T20:32:58.574Z,14.08
2023-10-06T20:35:27.884Z,14.05
2023-10-06T20:37:56.005Z,13.98
2023-10-06T20:40:25.948Z,13.95
2023-10-06T20:42:56.924Z,13.94
2023-10-06T20:45:28.117Z,13.90
2023-10-06T20:47:56.385Z,13.84
2023-10-06T20:50:26.733Z,13.87
2023-10-06T20:52:54.449Z,13.79
2023-10-06T20:55:21.842Z,13.64
2023-10-06T20:57:49.676Z,13.72
2023-10-06T21:00:23.000Z,13.69
2023-10-06T21:02:49.824Z,13.59
2023-10-06T21:05:18.319Z,13.57
2023-10-06T21:07:45.651Z,13.48
2023-10-06T21:10:14.587Z,13.45
2023-10-06T21:12:43.378Z,13.50
2023-10-06T21:15:11.987Z,13.51
2023-10-06T21:17:39.358Z,13.52
2023-10-06T21:20:08.620Z,13.32
2023-10-06T21:22:35.307Z,13.30
2023-10-06T21:25:01.914Z,13.31
2023-10-06T21:27:29.266Z,13.29
2023-10-06T21:29:55.829Z,13.31
2023-10-06T21:32:22.323Z,13.29
2023-10-06T21:34:49.888Z,13.20
2023-10-06T21:37:16.473Z,13.25
2023-10-06T21:39:45.442Z,13.24
2023-10-06T21:42:12.153Z,13.20
2023-10-06T21:44:38.685Z,13.11
2023-10-06T21:47:05.398Z,13.14
2023-10-06T21:49:32.277Z,13.21
2023-10-06T21:51:59.486Z,13.09
2023-10-06T21:54:25.949Z,13.09
2023-10-06T21:56:53.071Z,13.10
2023-10-06T21:59:19.561Z,13.09
2023-10-06T22:01:46.196Z,13.06
2023-10-06T22:04:14.626Z,12.98
2023-10-06T22:06:41.423Z,12.97
2023-10-06T22:09:16.355Z,12.93
2023-10-06T22:11:45.301Z,12.94
2023-10-06T22:14:13.430Z,12.93
2023-10-06T22:16:41.191Z,12.94
2023-10-06T22:19:11.005Z,12.90
2023-10-06T22:21:37.939Z,12.89
2023-10-06T22:24:06.651Z,12.88
2023-10-06T22:26:33.257Z,12.89
2023-10-06T22:29:00.204Z,12.87
2023-10-06T22:31:27.156Z,12.94
2023-10-06T22:33:56.562Z,12.90
2023-10-06T22:36:24.215Z,12.91
2023-10-06T22:38:55.149Z,12.94
2023-10-06T22:41:21.906Z,12.91
2023-10-06T22:43:48.813Z,12.88
2023-10-06T22:46:16.138Z,12.96
2023-10-06T22:48:45.405Z,12.98
2023-10-06T22:51:13.661Z,12.98
2023-10-06T22:53:40.136Z,12.97
2023-10-06T22:56:07.286Z,12.97
2023-10-06T22:58:34.030Z,12.95
2023-10-06T23:01:01.458Z,12.98
2023-10-06T23:03:30.484Z,12.93
2023-10-06T23:05:58.048Z,12.98
2023-10-06T23:08:25.382Z,12.98
2023-10-06T23:10:52.196Z,12.98
2023-10-06T23:13:19.018Z,12.99
2023-10-06T23:15:48.464Z,12.96
2023-10-06T23:18:18.270Z,13.03
2023-10-06T23:20:47.379Z,13.06
2023-10-06T23:23:14.369Z,13.04
2023-10-06T23:25:47.658Z,13.06
2023-10-06T23:28:15.199Z,13.10
2023-10-06T23:30:42.193Z,13.08
2023-10-06T23:33:11.359Z,12.94
2023-10-06T23:35:38.583Z,12.99
2023-10-06T23:38:08.097Z,13.00
2023-10-06T23:40:35.659Z,13.01
2023-10-06T23:43:02.441Z,13.01
2023-10-06T23:45:32.183Z,12.98
2023-10-06T23:47:59.983Z,13.00
2023-10-06T23:50:30.360Z,13.00
2023-10-06T23:53:01.417Z,12.96
2023-10-06T23:55:29.191Z,12.90
2023-10-06T23:57:56.051Z,12.83
